createdAt,value
2023-10-26T00:02:16.777Z,11.63
2023-10-26T00:04:45.003Z,11.61
2023-10-26T00:07:13.111Z,11.59
2023-10-26T00:09:40.966Z,11.58
2023-10-26T00:12:08.793Z,11.56
2023-10-26T00:14:37.018Z,11.54
2023-10-26T00:17:05.211Z,11.55
2023-10-26T00:19:34.402Z,11.54
2023-10-26T00:22:02.234Z,11.54
2023-10-26T00:24:31.065Z,11.54
2023-10-26T00:27:00.235Z,11.55
2023-10-26T00:29:28.322Z,11.56
2023-10-26T00:31:57.522Z,11.56
2023-10-26T00:34:25.431Z,11.55
2023-10-26T00:36:53.272Z,11.56
2023-10-26T00:39:21.241Z,11.56
2023-10-26T00:41:53.124Z,11.53
2023-10-26T00:44:21.824Z,11.48
2023-10-26T00:46:50.439Z,11.44
2023-10-26T00:49:21.614Z,11.41
2023-10-26T00:51:56.729Z,11.39
2023-10-26T00:54:25.037Z,11.37
2023-10-26T00:56:53.915Z,11.37
2023-10-26T00:59:22.083Z,11.37
2023-10-26T01:01:51.071Z,11.37
2023-10-26T01:04:19.044Z,11.37
2023-10-26T01:06:46.918Z,11.38
2023-10-26T01:09:16.223Z,11.38
2023-10-26T01:11:45.129Z,11.38
2023-10-26T01:14:13.502Z,11.38
2023-10-26T01:16:41.646Z,11.37
2023-10-26T01:19:10.939Z,11.37
2023-10-26T01:21:52.025Z,11.35
2023-10-26T01:24:21.638Z,11.37
2023-10-26T01:26:51.149Z,11.39
2023-10-26T01:29:20.835Z,11.42
2023-10-26T01:31:49.646Z,11.44
2023-10-26T01:34:17.486Z,11.47
2023-10-26T01:36:45.330Z,11.50
2023-10-26T01:39:15.646Z,11.51
2023-10-26T01:41:44.491Z,11.55
2023-10-26T01:44:12.667Z,11.58
2023-10-26T01:46:40.497Z,11.62
2023-10-26T01:49:08.425Z,11.67
2023-10-26T01:51:36.216Z,11.72
2023-10-26T01:54:04.159Z,11.75
2023-10-26T01:56:32.512Z,11.78
2023-10-26T01:59:00.418Z,11.82
2023-10-26T02:01:28.877Z,11.85
2023-10-26T02:03:56.796Z,11.88
2023-10-26T02:06:24.800Z,11.92
2023-10-26T02:08:52.891Z,11.94
2023-10-26T02:11:21.033Z,11.98
2023-10-26T02:13:49.152Z,12.02
2023-10-26T02:16:19.222Z,12.06
2023-10-26T02:18:47.443Z,12.09
2023-10-26T02:21:15.472Z,12.11
2023-10-26T02:23:45.216Z,12.12
2023-10-26T02:26:13.184Z,12.11
2023-10-26T02:28:41.336Z,12.13
2023-10-26T02:31:09.250Z,12.14
2023-10-26T02:33:37.169Z,12.15
2023-10-26T02:36:07.931Z,12.16
2023-10-26T02:38:35.971Z,12.13
2023-10-26T02:41:05.312Z,12.08
2023-10-26T02:43:33.242Z,12.09
2023-10-26T02:46:02.652Z,12.13
2023-10-26T02:48:30.762Z,12.18
2023-10-26T02:50:58.826Z,12.23
2023-10-26T02:53:26.966Z,12.26
2023-10-26T02:55:55.459Z,12.28
2023-10-26T02:58:23.418Z,12.31
2023-10-26T03:00:51.278Z,12.34
2023-10-26T03:03:19.346Z,12.35
2023-10-26T03:05:47.363Z,12.35
2023-10-26T03:08:15.392Z,12.34
2023-10-26T03:10:43.625Z,12.31
2023-10-26T03:13:12.984Z,12.29
2023-10-26T03:15:40.809Z,12.28
2023-10-26T03:18:08.761Z,12.25
2023-10-26T03:20:36.881Z,12.22
2023-10-26T03:23:05.460Z,12.18
2023-10-26T03:25:33.439Z,12.17
2023-10-26T03:28:01.284Z,12.15
2023-10-26T03:30:29.416Z,12.14
2023-10-26T03:32:57.595Z,12.13
2023-10-26T03:35:25.581Z,12.12
2023-10-26T03:37:53.624Z,12.11
2023-10-26T03:40:22.063Z,12.11
2023-10-26T03:42:49.900Z,12.11
2023-10-26T03:45:17.850Z,12.11
2023-10-26T03:47:46.717Z,12.09
2023-10-26T03:50:14.898Z,12.08
2023-10-26T03:52:42.812Z,12.08
2023-10-26T03:55:10.640Z,12.09
2023-10-26T03:57:38.887Z,12.09
2023-10-26T04:00:07.195Z,12.08
2023-10-26T04:02:43.827Z,12.08
2023-10-26T04:05:12.099Z,12.07
2023-10-26T04:07:40.998Z,12.05
2023-10-26T04:10:09.607Z,11.96
2023-10-26T04:12:37.479Z,11.89
2023-10-26T04:15:05.967Z,11.87
2023-10-26T04:17:33.960Z,11.83
2023-10-26T04:20:01.858Z,11.82
2023-10-26T04:22:29.829Z,11.83
2023-10-26T04:24:57.812Z,11.85
2023-10-26T04:27:26.226Z,11.87
2023-10-26T04:29:54.334Z,11.89
2023-10-26T04:32:22.850Z,11.90
2023-10-26T04:34:50.924Z,11.91
2023-10-26T04:37:19.005Z,11.92
2023-10-26T04:39:47.075Z,11.92
2023-10-26T04:42:15.022Z,11.90
2023-10-26T04:44:43.347Z,11.91
2023-10-26T04:47:11.495Z,11.90
2023-10-26T04:49:39.369Z,11.91
2023-10-26T04:52:07.170Z,11.94
2023-10-26T04:54:35.207Z,11.97
2023-10-26T04:57:03.446Z,12.00
2023-10-26T04:59:31.338Z,12.05
2023-10-26T05:01:59.198Z,12.11
2023-10-26T05:04:27.390Z,12.16
2023-10-26T05:06:55.626Z,12.23
2023-10-26T05:09:23.774Z,12.26
2023-10-26T05:11:51.892Z,12.29
2023-10-26T05:14:19.894Z,12.33
2023-10-26T05:16:48.028Z,12.37
2023-10-26T05:19:15.874Z,12.41
2023-10-26T05:21:43.867Z,12.44
2023-10-26T05:24:11.962Z,12.46
2023-10-26T05:26:39.827Z,12.48
2023-10-26T05:29:07.972Z,12.50
2023-10-26T05:31:35.996Z,12.50
2023-10-26T05:34:03.926Z,12.51
2023-10-26T05:36:32.006Z,12.55
2023-10-26T05:39:00.163Z,12.56
2023-10-26T05:41:28.429Z,12.56
2023-10-26T05:43:56.312Z,12.53
2023-10-26T05:46:24.269Z,12.47
2023-10-26T05:48:52.362Z,12.41
2023-10-26T05:51:20.422Z,12.35
2023-10-26T05:53:48.483Z,12.29
2023-10-26T05:56:16.561Z,12.28
2023-10-26T05:58:44.830Z,12.25
2023-10-26T06:01:12.904Z,12.23
2023-10-26T06:03:40.905Z,12.25
2023-10-26T06:06:09.060Z,12.26
2023-10-26T06:08:38.246Z,12.30
2023-10-26T06:11:06.306Z,12.37
2023-10-26T06:13:34.310Z,12.44
2023-10-26T06:16:02.366Z,12.51
2023-10-26T06:18:30.268Z,12.55
2023-10-26T06:20:59.430Z,12.58
2023-10-26T06:23:29.275Z,12.57
2023-10-26T06:25:58.466Z,12.56
2023-10-26T06:28:27.118Z,12.53
2023-10-26T06:30:55.602Z,12.52
2023-10-26T06:33:24.305Z,12.51
2023-10-26T06:35:52.384Z,12.51
2023-10-26T06:38:20.269Z,12.53
2023-10-26T06:40:48.604Z,12.57
2023-10-26T06:43:16.613Z,12.60
2023-10-26T06:45:44.679Z,12.62
2023-10-26T06:48:15.117Z,12.63
2023-10-26T06:50:44.370Z,12.63
2023-10-26T06:53:15.529Z,12.65
2023-10-26T06:55:44.115Z,12.66
2023-10-26T06:58:11.961Z,12.69
2023-10-26T07:00:40.070Z,12.72
2023-10-26T07:03:08.747Z,12.76
2023-10-26T07:05:36.897Z,12.83
2023-10-26T07:08:05.291Z,12.92
2023-10-26T07:10:33.357Z,13.01
2023-10-26T07:13:01.314Z,13.08
2023-10-26T07:15:29.550Z,13.15
2023-10-26T07:17:57.564Z,13.19
2023-10-26T07:20:25.511Z,13.21
2023-10-26T07:22:54.223Z,13.24
2023-10-26T07:25:22.018Z,13.28
2023-10-26T07:27:50.003Z,13.34
2023-10-26T07:30:18.018Z,13.39
2023-10-26T07:32:46.266Z,13.45
2023-10-26T07:35:16.253Z,13.51
2023-10-26T07:40:35.112Z,13.66
2023-10-26T07:43:03.178Z,13.73
2023-10-26T07:45:31.086Z,13.82
2023-10-26T07:50:47.412Z,13.98
2023-10-26T07:53:16.350Z,14.02
2023-10-26T07:55:47.573Z,14.01
2023-10-26T07:58:15.666Z,14.01
2023-10-26T08:00:43.571Z,14.02
2023-10-26T08:03:11.510Z,14.06
2023-10-26T08:05:39.619Z,14.13
2023-10-26T08:08:07.629Z,14.19
2023-10-26T08:10:39.126Z,14.26
2023-10-26T08:13:07.275Z,14.34
2023-10-26T08:16:10.576Z,14.38
2023-10-26T08:18:26.911Z,14.43
2023-10-26T08:20:55.345Z,14.49
2023-10-26T08:23:23.442Z,14.56
2023-10-26T08:25:51.855Z,14.61
2023-10-26T08:28:20.105Z,14.67
2023-10-26T08:30:49.167Z,14.72
2023-10-26T08:33:17.122Z,14.75
2023-10-26T08:35:51.671Z,14.77
2023-10-26T08:38:19.643Z,14.81
2023-10-26T08:40:51.646Z,14.86
2023-10-26T08:43:20.169Z,14.94
2023-10-26T08:45:48.954Z,15.01
2023-10-26T08:48:18.667Z,15.06
2023-10-26T08:50:48.084Z,15.06
2023-10-26T08:53:16.456Z,15.05
2023-10-26T08:55:44.733Z,15.06
2023-10-26T08:58:12.732Z,15.08
2023-10-26T09:00:42.108Z,15.11
2023-10-26T09:03:10.217Z,15.12
2023-10-26T09:05:52.700Z,15.12
2023-10-26T09:08:20.760Z,15.11
2023-10-26T09:10:48.602Z,15.08
2023-10-26T09:13:23.844Z,15.06
2023-10-26T09:15:52.860Z,15.03
2023-10-26T09:18:23.786Z,14.99
2023-10-26T09:21:02.767Z,14.98
2023-10-26T09:23:32.235Z,14.99
2023-10-26T09:26:01.241Z,15.00
2023-10-26T09:28:29.440Z,15.03
2023-10-26T09:30:59.822Z,15.02
2023-10-26T09:33:28.388Z,15.01
2023-10-26T09:36:10.914Z,14.98
2023-10-26T09:38:40.285Z,14.97
2023-10-26T09:41:10.028Z,14.95
2023-10-26T09:43:38.869Z,14.95
2023-10-26T09:46:07.050Z,14.93
2023-10-26T09:48:35.700Z,14.91
2023-10-26T09:51:05.861Z,14.89
2023-10-26T09:53:37.171Z,14.87
2023-10-26T09:56:05.682Z,14.85
2023-10-26T09:58:37.188Z,14.86
2023-10-26T10:01:25.386Z,14.85
2023-10-26T10:03:53.319Z,14.87
2023-10-26T10:06:39.713Z,14.92
2023-10-26T10:09:07.729Z,15.00
2023-10-26T10:11:36.561Z,15.10
2023-10-26T10:14:04.532Z,15.22
2023-10-26T10:16:35.561Z,15.35
2023-10-26T10:19:33.631Z,15.49
2023-10-26T10:22:03.725Z,15.69
2023-10-26T10:24:40.715Z,15.84
2023-10-26T10:27:13.050Z,15.97
2023-10-26T10:29:41.396Z,16.10
2023-10-26T10:32:12.171Z,16.20
2023-10-26T10:34:45.413Z,16.28
2023-10-26T10:37:23.240Z,16.36
2023-10-26T10:40:10.382Z,16.54
2023-10-26T10:42:42.403Z,16.76
2023-10-26T10:45:12.674Z,16.86
2023-10-26T10:47:44.598Z,16.91
2023-10-26T10:50:19.721Z,16.94
2023-10-26T10:52:49.094Z,16.95
2023-10-26T10:55:35.229Z,16.95
2023-10-26T10:58:04.274Z,16.95
2023-10-26T11:00:38.239Z,16.97
2023-10-26T11:05:38.717Z,16.95
2023-10-26T11:08:08.098Z,16.93
2023-10-26T11:10:36.034Z,16.89
2023-10-26T11:13:04.640Z,16.84
2023-10-26T11:15:33.798Z,16.78
2023-10-26T11:18:02.407Z,16.75
2023-10-26T11:20:48.437Z,16.73
2023-10-26T11:23:19.994Z,16.69
2023-10-26T11:25:48.034Z,16.67
2023-10-26T11:28:16.412Z,16.65
2023-10-26T11:30:51.366Z,16.63
2023-10-26T11:33:32.728Z,16.60
2023-10-26T11:36:01.007Z,16.59
2023-10-26T11:38:29.138Z,16.59
2023-10-26T11:40:57.465Z,16.59
2023-10-26T11:43:35.918Z,16.61
2023-10-26T11:46:07.393Z,16.65
2023-10-26T11:48:35.723Z,16.67
2023-10-26T11:51:07.988Z,16.70
2023-10-26T11:53:37.071Z,16.72
2023-10-26T11:56:05.619Z,16.74
2023-10-26T11:58:35.571Z,16.75
2023-10-26T12:01:04.998Z,16.75
2023-10-26T12:03:33.184Z,16.75
2023-10-26T12:06:01.328Z,16.74
2023-10-26T12:08:29.199Z,16.73
2023-10-26T12:10:57.021Z,16.72
2023-10-26T12:13:25.021Z,16.70
2023-10-26T12:15:53.087Z,16.68
2023-10-26T12:18:21.159Z,16.66
2023-10-26T12:20:49.010Z,16.65
2023-10-26T12:23:16.937Z,16.63
2023-10-26T12:25:47.950Z,16.61
2023-10-26T12:28:25.528Z,16.59
2023-10-26T12:30:54.928Z,16.58
2023-10-26T12:33:23.071Z,16.57
2023-10-26T12:35:52.305Z,16.55
2023-10-26T12:38:24.860Z,16.52
2023-10-26T12:40:52.958Z,16.49
2023-10-26T12:43:20.934Z,16.44
2023-10-26T12:45:48.921Z,16.41
2023-10-26T12:48:17.142Z,16.39
2023-10-26T12:50:45.454Z,16.37
2023-10-26T12:53:13.972Z,16.34
2023-10-26T12:55:42.081Z,16.31
2023-10-26T12:58:10.249Z,16.29
2023-10-26T13:00:38.449Z,16.27
2023-10-26T13:03:06.627Z,16.27
2023-10-26T13:05:34.798Z,16.26
2023-10-26T13:08:02.745Z,16.27
2023-10-26T13:10:32.361Z,16.28
2023-10-26T13:13:00.523Z,16.30
2023-10-26T13:15:28.667Z,16.30
2023-10-26T13:17:56.646Z,16.25
2023-10-26T13:20:27.227Z,16.21
2023-10-26T13:22:55.325Z,16.17
2023-10-26T13:25:24.443Z,16.10
2023-10-26T13:27:52.737Z,16.05
2023-10-26T13:30:21.432Z,15.98
2023-10-26T13:32:49.492Z,15.87
2023-10-26T13:35:17.394Z,15.81
2023-10-26T13:37:45.587Z,15.82
2023-10-26T13:40:13.672Z,15.81
2023-10-26T13:42:41.539Z,15.77
2023-10-26T13:45:09.915Z,15.71
2023-10-26T13:47:37.755Z,15.66
2023-10-26T13:50:06.033Z,15.65
2023-10-26T13:52:34.000Z,15.63
2023-10-26T13:55:02.172Z,15.62
2023-10-26T13:57:30.272Z,15.56
2023-10-26T13:59:58.428Z,15.59
2023-10-26T14:02:26.548Z,15.55
2023-10-26T14:04:54.665Z,15.52
2023-10-26T14:07:24.549Z,15.48
2023-10-26T14:09:53.503Z,15.36
2023-10-26T14:12:21.654Z,15.35
2023-10-26T14:14:49.623Z,15.24
2023-10-26T14:17:17.687Z,15.21
2023-10-26T14:19:46.508Z,15.17
2023-10-26T14:22:14.762Z,15.14
2023-10-26T14:24:44.050Z,15.05
2023-10-26T14:27:12.410Z,14.98
2023-10-26T14:29:40.507Z,14.94
2023-10-26T14:32:08.498Z,14.91
2023-10-26T14:34:38.191Z,14.89
2023-10-26T14:37:06.013Z,14.90
2023-10-26T14:39:33.913Z,14.84
2023-10-26T14:42:01.862Z,14.75
2023-10-26T14:44:29.864Z,14.74
2023-10-26T14:46:57.774Z,14.71
2023-10-26T14:49:25.580Z,14.73
2023-10-26T14:51:53.731Z,14.72
2023-10-26T14:54:21.590Z,14.72
2023-10-26T14:56:49.439Z,14.66
2023-10-26T14:59:17.478Z,14.68
2023-10-26T15:01:45.505Z,14.70
2023-10-26T15:04:13.811Z,14.69
2023-10-26T15:06:41.920Z,14.69
2023-10-26T15:09:10.279Z,14.65
2023-10-26T15:11:56.507Z,14.66
2023-10-26T15:14:25.779Z,14.61
2023-10-26T15:16:54.843Z,14.60
2023-10-26T15:19:23.042Z,14.60
2023-10-26T15:21:51.015Z,14.61
2023-10-26T15:24:19.206Z,14.60
2023-10-26T15:26:47.261Z,14.56
2023-10-26T15:29:15.336Z,14.54
2023-10-26T15:31:43.830Z,14.53
2023-10-26T15:34:11.812Z,14.49
2023-10-26T15:36:39.866Z,14.51
2023-10-26T15:39:09.377Z,14.52
2023-10-26T15:41:41.334Z,14.51
2023-10-26T15:44:10.030Z,14.54
2023-10-26T15:46:37.971Z,14.54
2023-10-26T15:49:33.006Z,14.56
2023-10-26T15:51:55.826Z,14.54
2023-10-26T15:54:23.984Z,14.50
2023-10-26T15:56:51.812Z,14.47
2023-10-26T15:59:19.654Z,14.47
2023-10-26T16:01:47.930Z,14.46
2023-10-26T16:04:15.866Z,14.43
2023-10-26T16:06:44.031Z,14.39
2023-10-26T16:09:11.963Z,14.37
2023-10-26T16:11:40.327Z,14.34
2023-10-26T16:14:08.396Z,14.36
2023-10-26T16:16:36.633Z,14.36
2023-10-26T16:19:05.791Z,14.40
2023-10-26T16:21:33.855Z,14.42
2023-10-26T16:24:01.925Z,14.42
2023-10-26T16:26:29.813Z,14.48
2023-10-26T16:29:00.056Z,14.52
2023-10-26T16:31:28.474Z,14.55
2023-10-26T16:33:56.584Z,14.53
2023-10-26T16:36:25.877Z,14.52
2023-10-26T16:38:53.781Z,14.51
2023-10-26T16:41:21.788Z,14.50
2023-10-26T16:43:50.379Z,14.52
2023-10-26T16:46:19.377Z,14.49
2023-10-26T16:48:47.580Z,14.44
2023-10-26T16:51:16.546Z,14.41
2023-10-26T16:53:44.640Z,14.44
2023-10-26T16:56:12.589Z,14.43
2023-10-26T16:58:40.485Z,14.45
2023-10-26T17:01:12.468Z,14.47
2023-10-26T17:03:40.652Z,14.49
2023-10-26T17:06:11.641Z,14.52
2023-10-26T17:08:39.678Z,14.54
2023-10-26T17:11:11.247Z,14.55
2023-10-26T17:13:39.265Z,14.59
2023-10-26T17:16:08.883Z,14.62
2023-10-26T17:18:37.214Z,14.61
2023-10-26T17:21:05.238Z,14.60
2023-10-26T17:23:35.612Z,14.54
2023-10-26T17:26:03.970Z,14.56
2023-10-26T17:28:31.866Z,14.55
2023-10-26T17:31:06.496Z,14.52
2023-10-26T17:33:35.115Z,14.54
2023-10-26T17:36:05.602Z,14.56
2023-10-26T17:38:34.050Z,14.56
2023-10-26T17:41:08.778Z,14.57
2023-10-26T17:43:39.624Z,14.55
2023-10-26T17:46:08.166Z,14.53
2023-10-26T17:48:37.565Z,14.46
2023-10-26T17:51:09.261Z,14.45
2023-10-26T17:53:39.380Z,14.45
2023-10-26T17:56:10.277Z,14.37
2023-10-26T17:58:38.293Z,14.30
2023-10-26T18:01:10.357Z,14.25
2023-10-26T18:03:39.910Z,14.24
2023-10-26T18:06:08.048Z,14.16
2023-10-26T18:08:36.827Z,14.09
2023-10-26T18:11:05.523Z,14.05
2023-10-26T18:13:35.522Z,14.03
2023-10-26T18:16:08.764Z,14.03
2023-10-26T18:18:37.796Z,14.03
2023-10-26T18:21:07.021Z,14.08
2023-10-26T18:23:38.235Z,14.14
2023-10-26T18:26:12.314Z,14.19
2023-10-26T18:28:41.638Z,14.25
2023-10-26T18:31:14.575Z,14.31
2023-10-26T18:33:47.016Z,14.35
2023-10-26T18:36:15.935Z,14.38
2023-10-26T18:38:59.862Z,14.39
2023-10-26T18:41:29.874Z,14.39
2023-10-26T18:43:57.788Z,14.38
2023-10-26T18:46:28.820Z,14.34
2023-10-26T18:49:03.937Z,14.30
2023-10-26T18:51:33.711Z,14.18
2023-10-26T18:54:04.634Z,14.06
2023-10-26T18:56:32.663Z,13.97
2023-10-26T18:59:00.823Z,13.91
2023-10-26T19:01:28.750Z,13.83
2023-10-26T19:04:02.669Z,13.80
2023-10-26T19:06:31.478Z,13.73
2023-10-26T19:08:59.940Z,13.72
2023-10-26T19:11:29.200Z,13.70
2023-10-26T19:13:57.438Z,13.73
2023-10-26T19:16:25.704Z,13.77
2023-10-26T19:18:53.966Z,13.80
2023-10-26T19:21:22.217Z,13.83
2023-10-26T19:23:50.729Z,13.86
2023-10-26T19:26:18.785Z,13.89
2023-10-26T19:28:47.019Z,13.90
2023-10-26T19:31:18.617Z,13.92
2023-10-26T19:33:50.663Z,13.95
2023-10-26T19:36:19.634Z,13.98
2023-10-26T19:38:50.065Z,14.00
2023-10-26T19:41:18.369Z,14.01
2023-10-26T19:43:46.409Z,14.00
2023-10-26T19:46:14.671Z,13.98
2023-10-26T19:48:42.914Z,13.96
2023-10-26T19:51:11.017Z,13.95
2023-10-26T19:53:39.079Z,13.93
2023-10-26T19:56:07.690Z,13.90
2023-10-26T19:58:38.570Z,13.88
2023-10-26T20:01:14.034Z,13.86
2023-10-26T20:03:42.280Z,13.82
2023-10-26T20:06:10.454Z,13.79
2023-10-26T20:08:38.588Z,13.75
2023-10-26T20:11:10.607Z,13.68
2023-10-26T20:13:38.745Z,13.57
2023-10-26T20:16:06.795Z,13.47
2023-10-26T20:18:43.309Z,13.39
2023-10-26T20:21:11.183Z,13.34
2023-10-26T20:23:39.229Z,13.32
2023-10-26T20:26:07.118Z,13.29
2023-10-26T20:28:35.760Z,13.26
2023-10-26T20:31:05.055Z,13.25
2023-10-26T20:33:33.274Z,13.24
2023-10-26T20:36:01.510Z,13.21
2023-10-26T20:38:29.403Z,13.19
2023-10-26T20:40:57.236Z,13.17
2023-10-26T20:43:25.383Z,13.13
2023-10-26T20:45:57.931Z,13.11
2023-10-26T20:48:26.665Z,13.08
2023-10-26T20:50:55.968Z,13.06
2023-10-26T20:53:29.232Z,13.03
2023-10-26T20:56:00.747Z,12.99
2023-10-26T20:58:29.511Z,12.93
2023-10-26T21:00:58.116Z,12.87
2023-10-26T21:03:26.578Z,12.78
2023-10-26T21:05:54.864Z,12.71
2023-10-26T21:08:23.348Z,12.63
2023-10-26T21:10:51.439Z,12.55
2023-10-26T21:13:19.395Z,12.49
2023-10-26T21:15:48.137Z,12.41
2023-10-26T21:18:16.142Z,12.31
2023-10-26T21:20:43.919Z,12.25
2023-10-26T21:23:11.776Z,12.20
2023-10-26T21:25:39.646Z,12.14
2023-10-26T21:28:08.540Z,12.08
2023-10-26T21:30:39.693Z,12.05
2023-10-26T21:33:07.547Z,12.02
2023-10-26T21:35:36.753Z,11.99
2023-10-26T21:38:05.773Z,11.97
2023-10-26T21:40:38.224Z,11.93
2023-10-26T21:43:06.511Z,11.91
2023-10-26T21:45:37.741Z,11.87
2023-10-26T21:48:06.099Z,11.83
2023-10-26T21:50:35.048Z,11.79
2023-10-26T21:53:03.192Z,11.74
2023-10-26T21:55:31.247Z,11.71
2023-10-26T21:57:59.112Z,11.67
2023-10-26T22:00:29.638Z,11.63
2023-10-26T22:02:57.946Z,11.60
2023-10-26T22:05:27.412Z,11.58
2023-10-26T22:07:55.603Z,11.56
2023-10-26T22:10:23.558Z,11.55
2023-10-26T22:12:51.545Z,11.54
2023-10-26T22:15:19.821Z,11.52
2023-10-26T22:17:48.057Z,11.52
2023-10-26T22:20:16.783Z,11.52
2023-10-26T22:22:44.853Z,11.49
2023-10-26T22:25:12.957Z,11.48
2023-10-26T22:27:41.549Z,11.46
2023-10-26T22:30:09.896Z,11.43
2023-10-26T22:32:37.743Z,11.40
2023-10-26T22:35:05.886Z,11.39
2023-10-26T22:37:34.092Z,11.38
2023-10-26T22:40:02.082Z,11.37
2023-10-26T22:42:30.248Z,11.37
2023-10-26T22:44:58.372Z,11.37
2023-10-26T22:47:26.415Z,11.39
2023-10-26T22:49:55.640Z,11.39
2023-10-26T22:52:23.620Z,11.38
2023-10-26T22:54:51.698Z,11.38
2023-10-26T22:57:20.212Z,11.40
2023-10-26T22:59:48.342Z,11.39
2023-10-26T23:02:16.174Z,11.38
2023-10-26T23:04:44.664Z,11.38
2023-10-26T23:07:12.690Z,11.36
2023-10-26T23:09:40.883Z,11.33
2023-10-26T23:12:09.656Z,11.30
2023-10-26T23:14:37.475Z,11.27
2023-10-26T23:17:05.506Z,11.27
2023-10-26T23:19:33.410Z,11.27
2023-10-26T23:22:03.093Z,11.26
2023-10-26T23:24:31.177Z,11.26
2023-10-26T23:26:59.117Z,11.25
2023-10-26T23:29:29.060Z,11.25
2023-10-26T23:31:56.897Z,11.28
2023-10-26T23:34:24.905Z,11.30
2023-10-26T23:36:53.150Z,11.31
2023-10-26T23:39:20.948Z,11.28
2023-10-26T23:41:48.842Z,11.26
2023-10-26T23:44:16.870Z,11.24
2023-10-26T23:46:44.671Z,11.20
2023-10-26T23:49:12.640Z,11.16
2023-10-26T23:51:40.669Z,11.12
2023-10-26T23:54:09.868Z,11.09
2023-10-26T23:56:38.469Z,11.08
2023-10-26T23:59:06.311Z,11.09
